• Join FlightAware (Why Join?)
  • Login
  • US Flag 
11:38PM EDT


 

Airport Tracker/Info


-or-


 

Live Flight TrackerFlight Track Log ✈ C-FZQP ✈ 10-Mar-2012 ✈ KAPA - KGEU

Flight Track Log - Related Links

Times and Time Zones

All times are in EST time to prevent confusion due to time zone crossing. See the C-FZQP flight status page for this flight to view local times or setup timezone preferences in your user account.

Time Position Orientation Groundspeed Altitude Reporting Facility
EST Latitude Longitude Course Direction KTS MPH feet Rate Location/Type
08:38PM 39.5367 -104.8686 212° Southwest 185 213 7,900  Level Denver Center
08:39PM 39.4789 -104.9156 212° Southwest 224 258 8,400 1,320 Climbing Denver Center
08:40PM 39.4108 -104.9708 212° Southwest 278 320 10,600 2,700 Climbing Denver Center
08:41PM 39.3325 -105.0344 192° South 317 365 13,800 3,300 Climbing Denver Center
08:42PM 39.2450 -105.0575 181° South 331 381 17,300 3,360 Climbing Denver Center
08:43PM 39.1514 -105.0594 203° Southwest 331 381 20,600 2,940 Climbing Denver Center
08:44PM 39.0603 -105.1094 204° Southwest 341 392 23,200 2,520 Climbing Denver Center
08:45PM 38.9650 -105.1647 208° Southwest 365 420 25,700 2,400 Climbing Denver Center
08:46PM 38.8697 -105.2306 229° Southwest 385 443 28,000 2,040 Climbing Denver Center
08:47PM 38.7958 -105.3383 229° Southwest 404 465 29,800 1,680 Climbing Denver Center
08:48PM 38.7281 -105.4378 228° Southwest 415 478 31,400 1,200 Climbing Denver Center
08:49PM 38.6456 -105.5561 228° Southwest 437 503 32,200 1,320 Climbing Denver Center
08:50PM 38.5650 -105.6714 228° Southwest 445 512 34,100 1,800 Climbing Denver Center
08:51PM 38.4886 -105.7808 233° Southwest 428 493 35,900 900 Climbing Denver Center
08:52PM 38.4103 -105.9114 227° Southwest 423 487 36,000  Climbing Denver Center
08:53PM 38.3356 -106.0153 229° Southwest 437 503 36,000  Level Denver Center
08:54PM 38.2567 -106.1319 227° Southwest 444 511 36,000  Level Denver Center
08:55PM 38.1633 -106.2592 228° Southwest 450 518 36,000  Level Denver Center
08:56PM 38.0944 -106.3569 230° Southwest 451 519 36,000  Level Denver Center
08:57PM 38.0092 -106.4836 228° Southwest 442 509 36,000  Level Denver Center
08:58PM 37.9256 -106.5994 228° Southwest 442 509 36,000  Level Denver Center
08:59PM 37.8358 -106.7253 228° Southwest 442 509 36,000 120 Level Denver Center
09:00PM 37.7625 -106.8275 228° Southwest 442 509 36,300 300 Climbing Denver Center
09:01PM 37.6703 -106.9581 227° Southwest 442 509 36,700 300 Climbing Denver Center
09:02PM 37.5864 -107.0728 229° Southwest 448 516 37,000 120 Climbing Denver Center
09:03PM 37.5108 -107.1819 227° Southwest 454 522 37,000  Level Denver Center
09:04PM 37.4267 -107.2961 228° Southwest 454 522 37,000  Level Denver Center
09:05PM 37.3339 -107.4256 228° Southwest 461 531 37,000  Level Denver Center
09:06PM 37.2475 -107.5442 228° Southwest 461 531 37,000  Level Denver Center
09:07PM 37.1714 -107.6500 228° Southwest 466 536 37,000  Level Denver Center
09:08PM 37.0783 -107.7783 227° Southwest 459 528 37,000  Level Denver Center
09:09PM 36.9933 -107.8939 227° Southwest 459 528 37,000  Level Denver Center
09:10PM 36.9108 -108.0064 228° Southwest 459 528 37,000  Level Denver Center
09:11PM 36.8364 -108.1083 227° Southwest 459 528 37,000  Level Denver Center
09:12PM 36.7450 -108.2306 227° Southwest 447 514 37,000  Level Denver Center
09:13PM 36.6639 -108.3400 226° Southwest 442 509 37,000  Level Denver Center
09:14PM 36.5808 -108.4489 228° Southwest 436 502 37,000  Level Denver Center
09:15PM 36.5083 -108.5475 227° Southwest 436 502 37,000  Level Denver Center
09:16PM 36.4164 -108.6714 227° Southwest 436 502 37,000  Level Denver Center
09:17PM 36.3328 -108.7822 227° Southwest 436 502 37,000  Level Denver Center
09:18PM 36.2558 -108.8853 228° Southwest 441 507 37,000  Level Denver Center
09:19PM 36.1633 -109.0106 225° Southwest 446 513 37,000  Level Denver Center
09:20PM 36.0756 -109.1181 226° Southwest 446 513 37,000  Level Denver Center
09:22PM 35.9297 -109.3031 226° Southwest 459 528 37,000  Level Albuquerque Center
09:23PM 35.8444 -109.4136 227° Southwest 453 521 37,000  Level Albuquerque Center
09:24PM 35.7483 -109.5392 226° Southwest 453 521 37,000  Level Albuquerque Center
09:25PM 35.6628 -109.6494 227° Southwest 453 521 37,000  Level Albuquerque Center
09:26PM 35.5856 -109.7519 226° Southwest 458 527 37,000  Level Albuquerque Center
09:27PM 35.4978 -109.8642 226° Southwest 463 533 37,000  Level Albuquerque Center
09:28PM 35.4011 -109.9883 227° Southwest 463 533 37,000  Level Albuquerque Center
09:29PM 35.3172 -110.1003 228° Southwest 463 533 37,000  Level Albuquerque Center
09:30PM 35.2397 -110.2044 226° Southwest 463 533 37,000 -600 Level Albuquerque Center
09:31PM 35.1514 -110.3181 227° Southwest 463 533 35,900 -1,320 Descending Albuquerque Center
09:32PM 35.0544 -110.4439 227° Southwest 463 533 34,400 -1,440 Descending Albuquerque Center
09:33PM 34.9658 -110.5597 227° Southwest 468 539 33,100 -1,260 Descending Albuquerque Center
09:34PM 34.8858 -110.6656 229° Southwest 468 539 31,900 -1,380 Descending Albuquerque Center
09:35PM 34.7989 -110.7858 227° Southwest 476 548 30,400 -1,800 Descending Albuquerque Center
09:36PM 34.7078 -110.9033 225° Southwest 481 554 28,300 -1,620 Descending Albuquerque Center
09:37PM 34.6147 -111.0181 227° Southwest 481 554 27,200 -1,800 Descending Albuquerque Center
09:38PM 34.5189 -111.1422 225° Southwest 481 554 24,800 -3,000 Descending Albuquerque Center
09:39PM 34.4364 -111.2417 227° Southwest 468 539 21,200 -3,660 Descending Albuquerque Center
09:40PM 34.3383 -111.3703 227° Southwest 468 539 17,500 -3,600 Descending Albuquerque Center
09:41PM 34.2556 -111.4769 226° Southwest 462 532 14,000 -3,120 Descending Albuquerque Center
09:42PM 34.1811 -111.5711 226° Southwest 430 495 11,300 -1,560 Descending Albuquerque Center
09:43PM 34.1244 -111.6408 227° Southwest 364 419 10,900 -300 Descending Albuquerque Center
09:44PM 34.0675 -111.7133 221° Southwest 314 361 10,800 -780 Descending Albuquerque Center
09:45PM 34.0047 -111.7800 223° Southwest 303 349 9,400 -1,440 Descending Albuquerque Center
09:46PM 33.9481 -111.8447 233° Southwest 290 334 8,000 -1,020 Descending Albuquerque Center
09:47PM 33.8903 -111.9367 243° Southwest 230 265 7,000 -780 Descending Albuquerque Center
09:48PM 33.8650 -111.9953 242° Southwest 211 243 6,300 -600 Descending Albuquerque Center
09:49PM 33.8308 -112.0733 248° West 257 296 5,900 -720 Descending Albuquerque Center
09:50PM 33.8047 -112.1517 227° Southwest 269 310 4,900 -720 Descending Albuquerque Center
09:51PM 33.7672 -112.1994 189° South 205 236 4,500 -720 Descending Albuquerque Center
09:52PM 33.7189 -112.2092 187° South 213 245 3,600 -600 Descending Albuquerque Center
09:53PM 33.6706 -112.2164 203° Southwest 156 180 3,400 -300 Descending Albuquerque Center
09:54PM 33.6344 -112.2344 205° Southwest 142 163 3,100 -420 Descending Albuquerque Center
09:55PM 33.5981 -112.2547 205° Southwest 145 167 2,600 -660 Descending Albuquerque Center
09:56PM 33.5619 -112.2750 209° Southwest 138 159 1,800 -780 Descending Albuquerque Center
09:57PM 33.5339 -112.2933 209° Southwest 131 151 1,100 -720 Descending Albuquerque Center